Avon, New Jersey
Current Conditions -  °F | °C
As of 3:35 PM on Friday 28 Nov 2014 (Local Time) from KBLM Reporting Station
Clear Clear  
Wind Chill: -4°   Ceiling: Unl
Heat Index:   Visibility: 10mi
Dew Point: -10°   Wind: 13mph
Humidity: 44%   Direction: 310°NW
Pressure: 30.19"   Gusts: 22mph
Location:  40.1917°N, 74.0159°W
Report Text: KBLM 282035Z AUTO 31011G19KT 10SM CLR 01/M10 A3019 RMK AO1
Loading
Personal Weather Stations






























Interactive Weather Map New forecast layout! Learn more

10-Day Weather Forecast

Advertisements
Track Severe Weather on mobile